Flight Track Log - Related Links

Times and Time Zones

All times are in EDT time to prevent confusion due to time zone crossing. See the FDX1603 flight status page for this flight to view local times or setup timezone preferences in your user account.

Time Position Orientation Groundspeed Altitude Reporting Facility
EDT Latitude Longitude Course Direction KTS MPH feet Rate Location/Type
Tue 11:28:07 PM 33.6490 -84.4790 273° West 213 245 3,500  Level FlightAware ADS-B
Tue 11:28:22 PM 33.6500 -84.5010 273° West 238 274 4,200 3,333 Climbing FlightAware ADS-B
Tue 11:28:52 PM 33.6520 -84.5400 274° West 261 300 6,000 3,750 Climbing FlightAware ADS-B
Tue 11:29:42 PM 33.6620 -84.6140 279° West 274 315 9,200 3,927 Climbing FlightAware ADS-B
Tue 11:29:47 PM 33.6680 -84.6220 312° West 276 318 9,600 3,400 Climbing FlightAware ADS-B
Tue 11:30:12 PM 33.6950 -84.6370 335° Northwest 290 334 10,900 2,640 Climbing FlightAware ADS-B
Tue 11:30:37 PM 33.7310 -84.6390 357° North 325 374 11,800 2,400 Climbing FlightAware ADS-B
Tue 11:31:17 PM 33.7970 -84.6350 North 363 418 13,500 3,180 Climbing FlightAware ADS-B
Tue 11:32:17 PM 33.8990 -84.6270 North 364 419 17,100 3,402 Climbing FlightAware ADS-B
Tue 11:33:08 PM 33.9968 -84.6189 North 19,900 3,224 Climbing FlightAware ADS-B
Tue 11:33:24 PM 34.0260 -84.6164 North 392 451 20,700 2,760 Climbing FlightAware ADS-B
Tue 11:33:58 PM 34.0882 -84.6109 North 405 466 22,200 2,000 Climbing FlightAware ADS-B
Tue 11:34:33 PM 34.1542 -84.6054 North 408 470 23,000 1,727 Climbing FlightAware ADS-B
Tue 11:35:04 PM 34.2138 -84.6003 North 410 472 24,100 2,316 Climbing FlightAware ADS-B
Tue 11:35:30 PM 34.2618 -84.5961 North 414 476 25,200 2,667 Climbing FlightAware ADS-B
Tue 11:35:40 PM 34.2818 -84.5964 359° North 415 478 25,700 2,750 Climbing FlightAware ADS-B
Tue 11:35:54 PM 34.3097 -84.5999 354° North 420 483 26,300 2,267 Climbing FlightAware ADS-B
Tue 11:36:25 PM 34.3686 -84.6147 348° North 429 494 27,400 2,066 Climbing FlightAware ADS-B
Tue 11:36:55 PM 34.4284 -84.6289 349° North 439 505 28,400 2,032 Climbing FlightAware ADS-B
Tue 11:37:27 PM 34.4925 -84.6447 349° North 447 514 29,500 2,571 Climbing FlightAware ADS-B
Tue 11:37:58 PM 34.5547 -84.6602 348° North 440 506 31,100 2,419 Climbing FlightAware ADS-B
Tue 11:38:29 PM 34.6159 -84.6756 348° North 437 503 32,000 871 Climbing FlightAware ADS-B
Tue 11:39:00 PM 34.6775 -84.6909 348° North 436 502 32,000  Level FlightAware ADS-B
Tue 11:39:30 PM 34.7383 -84.7055 349° North 438 504 32,000  Level FlightAware ADS-B
Tue 11:40:04 PM 34.8054 -84.7223 348° North 438 504 32,000  Level FlightAware ADS-B
Tue 11:40:35 PM 34.8667 -84.7375 349° North 435 501 32,000  Level FlightAware ADS-B
Tue 11:41:06 PM 34.9279 -84.7525 349° North 433 498 32,000  Level FlightAware ADS-B
Tue 11:41:37 PM 34.9883 -84.7678 348° North 434 499 32,000  Level FlightAware ADS-B
Tue 11:42:08 PM 35.0496 -84.7833 348° North 435 501 32,000  Level FlightAware ADS-B
Tue 11:42:38 PM 35.1097 -84.7978 349° North 435 501 32,000  Level FlightAware ADS-B
Tue 11:43:08 PM 35.1694 -84.8126 349° North 435 501 32,000  Level FlightAware ADS-B
Tue 11:43:40 PM 35.2310 -84.8285 348° North 435 501 32,000  Level FlightAware ADS-B
Tue 11:44:10 PM 35.2907 -84.8434 348° North 434 499 32,000  Level FlightAware ADS-B
Tue 11:44:40 PM 35.3507 -84.8582 349° North 435 501 32,000  Level FlightAware ADS-B
Tue 11:45:11 PM 35.4113 -84.8737 348° North 437 503 32,000  Level FlightAware ADS-B
Tue 11:45:42 PM 35.4723 -84.8893 348° North 437 503 32,000  Level FlightAware ADS-B
Tue 11:46:12 PM 35.5323 -84.9043 349° North 436 502 32,000  Level FlightAware ADS-B
Tue 11:46:43 PM 35.5931 -84.9199 348° North 438 504 32,000 98 Level FlightAware ADS-B
Tue 11:47:13 PM 35.6530 -84.9350 348° North 438 504 32,100 100 Climbing FlightAware ADS-B
Tue 11:47:43 PM 35.7138 -84.9500 349° North 436 502 32,100  Level FlightAware ADS-B
Tue 11:48:14 PM 35.7733 -84.9654 348° North 434 499 32,100 -98 Level FlightAware ADS-B
Tue 11:48:44 PM 35.8341 -84.9805 349° North 434 499 32,000 -100 Descending FlightAware ADS-B
Tue 11:49:14 PM 35.8932 -84.9957 348° North 434 499 32,000  Level FlightAware ADS-B
Tue 11:49:50 PM 35.9637 -85.0137 348° North 433 498 32,000  Level FlightAware ADS-B
Tue 11:50:20 PM 36.0227 -85.0289 348° North 433 498 32,000  Level FlightAware ADS-B
Tue 11:50:51 PM 36.0833 -85.0446 348° North 432 497 32,000  Level FlightAware ADS-B
Tue 11:51:21 PM 36.1426 -85.0595 349° North 433 498 32,000  Level FlightAware ADS-B
Tue 11:51:52 PM 36.2021 -85.0750 348° North 433 498 32,000  Level FlightAware ADS-B
Tue 11:52:27 PM 36.2709 -85.0928 348° North 432 497 32,000  Level FlightAware ADS-B
Tue 11:52:58 PM 36.3314 -85.1083 348° North 433 498 32,000  Level FlightAware ADS-B
Tue 11:53:44 PM 36.4219 -85.1318 348° North 433 498 32,000  Level FlightAware ADS-B
Tue 11:54:14 PM 36.4826 -85.1462 349° North 441 507 32,000  Level FlightAware ADS-B
Tue 11:54:45 PM 36.5447 -85.1594 350° North 451 519 32,000  Level FlightAware ADS-B
Tue 11:55:15 PM 36.6067 -85.1731 350° North 450 518 32,000  Level FlightAware ADS-B
Tue 11:56:07 PM 36.6880 -85.1910 350° North 449 517 32,000  Level FlightAware ADS-B
Tue 11:56:11 PM 36.7230 -85.1994 349° North 451 519 32,000  Level FlightAware ADS-B
Tue 11:56:42 PM 36.7852 -85.2136 350° North 453 521 32,000  Level FlightAware ADS-B
Tue 11:57:14 PM 36.8534 -85.2292 350° North 455 524 32,000  Level FlightAware ADS-B
Tue 11:57:55 PM 36.9379 -85.2486 350° North 454 522 32,000  Level FlightAware ADS-B
Tue 11:58:26 PM 37.0014 -85.2630 350° North 452 520 32,000  Level FlightAware ADS-B
Tue 11:58:56 PM 37.0637 -85.2772 350° North 454 522 32,000  Level FlightAware ADS-B
Tue 11:59:26 PM 37.1267 -85.2916 350° North 457 526 32,000  Level FlightAware ADS-B
Tue 11:59:57 PM 37.1903 -85.3066 349° North 457 526 32,000  Level FlightAware ADS-B
Wed 12:00:28 AM 37.2551 -85.3214 350° North 456 525 32,000  Level FlightAware ADS-B
Wed 12:00:58 AM 37.3180 -85.3357 350° North 458 527 32,000  Level FlightAware ADS-B
Wed 12:01:38 AM 37.4011 -85.3551 349° North 458 527 32,000  Level FlightAware ADS-B
Wed 12:02:10 AM 37.4678 -85.3706 350° North 459 528 32,000  Level FlightAware ADS-B
Wed 12:02:41 AM 37.5316 -85.3856 349° North 458 527 32,000  Level FlightAware ADS-B
Wed 12:03:47 AM 37.6670 -85.4170 350° North 458 527 32,000  Level FlightAware ADS-B
Wed 12:04:32 AM 37.7610 -85.4390 350° North 459 528 32,000  Level FlightAware ADS-B
Wed 12:05:12 AM 37.8440 -85.4580 350° North 461 531 32,000  Level FlightAware ADS-B
Wed 12:05:52 AM 37.9280 -85.4780 349° North 461 531 32,000  Level FlightAware ADS-B
Wed 12:06:37 AM 38.0230 -85.5010 349° North 462 532 32,000  Level FlightAware ADS-B
Wed 12:07:17 AM 38.1090 -85.5210 350° North 463 533 32,000 -150 Level FlightAware ADS-B
Wed 12:07:57 AM 38.1900 -85.5410 349° North 441 507 31,800 -1,553 Descending FlightAware ADS-B
Wed 12:08:42 AM 38.2810 -85.5610 350° North 453 521 29,800 -2,682 Descending FlightAware ADS-B
Wed 12:09:22 AM 38.3630 -85.5810 349° North 460 529 28,000 -2,541 Descending FlightAware ADS-B
Wed 12:10:07 AM 38.4560 -85.6030 350° North 445 512 26,200 -2,471 Descending FlightAware ADS-B
Wed 12:10:47 AM 38.5390 -85.6230 349° North 434 499 24,500 -2,259 Descending FlightAware ADS-B
Wed 12:11:32 AM 38.6250 -85.6430 350° North 425 489 23,000 -1,976 Descending FlightAware ADS-B
Wed 12:12:12 AM 38.7030 -85.6560 353° North 420 483 21,700 -2,100 Descending FlightAware ADS-B
Wed 12:12:52 AM 38.7790 -85.6690 352° North 414 476 20,200 -2,250 Descending FlightAware ADS-B
Wed 12:13:32 AM 38.8540 -85.6820 352° North 409 471 18,700 -2,329 Descending FlightAware ADS-B
Wed 12:14:17 AM 38.9400 -85.6980 352° North 396 456 16,900 -2,211 Descending FlightAware ADS-B
Wed 12:15:07 AM 39.0280 -85.7140 352° North 385 443 15,200 -1,582 Descending FlightAware ADS-B
Wed 12:16:07 AM 39.1290 -85.7330 352° North 379 436 14,000 -720 Descending FlightAware ADS-B
Wed 12:16:47 AM 39.1880 -85.7450 351° North 379 436 14,000  Level FlightAware ADS-B
Wed 12:17:27 AM 39.2460 -85.7570 351° North 379 436 14,000 -3,107 Level FlightAware ADS-B
Wed 12:17:43 AM 39.3000 -85.7667 351° North 379 436 11,100 -4,118 Descending Indianapolis TRACON
Wed 12:18:18 AM 39.3400 -85.7956 331° Northwest 372 428 10,500 -695 Descending Indianapolis Center
Wed 12:19:18 AM 39.4072 -85.8764 317° Northwest 334 384 10,000 -248 Descending Indianapolis Center
Wed 12:20:19 AM 39.4639 -85.9478 316° Northwest 294 338 10,000 -50 Level Indianapolis Center
Wed 12:21:19 AM 39.5225 -86.0169 318° Northwest 287 330 9,900 -645 Descending Indianapolis Center
Wed 12:22:20 AM 39.5375 -86.1203 281° West 298 343 8,700 -1,180 Descending Indianapolis Center
Wed 12:23:21 AM 39.5433 -86.2231 274° West 290 334 7,500 -1,388 Descending Indianapolis Center
Wed 12:24:21 AM 39.5489 -86.3231 274° West 279 321 5,900 -1,339 Descending Indianapolis Center
Wed 12:25:22 AM 39.5531 -86.4122 273° West 255 293 4,800 -1,091 Descending Indianapolis Center
Wed 12:26:22 AM 39.5961 -86.4289 343° North 185 213 3,700 -1,041 Descending Indianapolis Center
Wed 12:27:23 AM 39.6317 -86.3911 39° Northeast 168 193 2,700 -942 Descending Indianapolis Center
Wed 12:28:23 AM 39.6614 -86.3542 44° Northeast 159 183 1,800 -744 Descending Indianapolis Center
Wed 12:29:24 AM 39.6872 -86.3211 45° Northeast 146 168 1,200 -541 Descending Indianapolis Center
Wed 12:30:25 AM 39.7158 -86.2839 45° Northeast 140 161 700 -492 Descending Indianapolis Center
Wed 12:32:00 AM 39.7173 -86.2947 142° Southeast  Level Estimated

Login

Don't have an account? Register now (free) for customized features, flight alerts, and more!